Data for 07/04/2013

Time Sea-Level Adjusted Pressure Absolute Pressure Temperature Relative Humidity Dew Point   
(mb) (inHg) (mb) (inHg) (C) (F) (%) (C) (F)
00:05 1018 30.06 848 25.04 20.5 69 52 10.4 50.6
00:10 1018 30.06 847 25.01 20.2 68.4 53 10.5 50.9
00:15 1018 30.06 847 25.01 20 68 53 10.3 50.5
00:20 1018 30.06 847 25.01 20 68 52 10.1 50.2
00:25 1018 30.06 847 25.01 20.1 68.1 54 10.7 51.3
00:30 1018 30.06 848 25.04 20.2 68.4 54 10.9 51.6
00:35 1018 30.06 848 25.04 20.6 69 48 9.2 48.6
00:40 1018 30.06 848 25.04 20.6 69.1 48 9.4 49
00:45 1018 30.06 848 25.04 20.4 68.7 50 9.8 49.7
00:50 1018 30.06 848 25.04 20.1 68.3 50 9.7 49.4
00:55 1018 30.06 848 25.04 19.7 67.4 52 9.7 49.5
01:00 1018 30.06 848 25.04 19.2 66.6 55 10.1 50.3
01:05 1018 30.06 848 25.04 18.7 65.7 57 10.1 50.2
01:10 1018 30.06 848 25.04 18.4 65.2 59 10.3 50.5
01:15 1018 30.06 848 25.04 18.1 64.5 60 10.1 50.3
01:20 1018 30.06 848 25.04 17.9 64.2 60 10.1 50.2
01:25 1018 30.06 848 25.04 17.8 64.1 59 9.7 49.4
01:30 1018 30.06 848 25.04 17.9 64.3 57 9.4 49
01:35 1018 30.06 848 25.04 18.1 64.7 55 9.1 48.4
01:40 1018 30.06 848 25.04 18.4 65 54 9 48.1
01:45 1019 30.09 848 25.04 18.4 65.2 54 9 48.3
01:50 1019 30.09 848 25.04 18.3 65 55 9.1 48.4
01:55 1019 30.09 848 25.04 18.3 64.9 54 8.9 47.9
02:00 1019 30.09 848 25.04 18.3 64.9 55 9.2 48.5
02:05 1019 30.09 848 25.04 18 64.5 55 9 48.2
02:10 1019 30.09 848 25.04 18 64.4 54 8.5 47.4
02:15 1019 30.09 848 25.04 18.3 64.9 52 8.5 47.3
02:20 1019 30.09 848 25.04 18.5 65.2 52 8.6 47.5
02:25 1019 30.09 848 25.04 18.1 64.6 54 8.7 47.7
02:30 1019 30.09 848 25.04 18.3 65 54 9 48.2
02:35 1019 30.09 848 25.04 18.3 65 53 8.7 47.7
02:40 1019 30.09 848 25.04 18 64.4 55 8.8 47.9
02:45 1019 30.09 848 25.04 17.7 63.8 53 8.2 46.7
02:50 1019 30.09 848 25.04 17.7 63.8 55 8.6 47.5
02:55 1019 30.09 848 25.04 17.4 63.3 56 8.7 47.6
03:00 1019 30.09 848 25.04 17.4 63.2 56 8.5 47.3
03:05 1019 30.09 848 25.04 17.3 63.2 55 8.3 46.9
03:10 1019 30.09 848 25.04 17.6 63.6 53 8.1 46.5
03:15 1019 30.09 848 25.04 17.6 63.7 54 8.2 46.8
03:20 1019 30.09 848 25.04 17.5 63.5 54 8.1 46.6
03:25 1019 30.09 848 25.04 17.4 63.3 54 8.2 46.8
03:30 1019 30.09 848 25.04 17.3 63.1 54 8 46.5
03:35 1019 30.09 848 25.04 17.2 62.9 55 8.1 46.6
03:40 1019 30.09 848 25.04 17.2 62.9 55 8.2 46.8
03:45 1019 30.09 848 25.04 17.3 63.1 54 8 46.4
03:50 1019 30.09 848 25.04 17.4 63.2 53 7.8 46.1
03:55 1019 30.09 848 25.04 17.4 63.3 53 7.7 45.9
04:00 1019 30.09 848 25.04 17.5 63.5 52 7.6 45.8
04:05 1019 30.09 848 25.04 17.7 63.8 51 7.6 45.6
04:10 1019 30.09 848 25.04 17.6 63.7 51 7.5 45.5
04:15 1019 30.09 848 25.04 17.5 63.5 52 7.6 45.6
04:20 1019 30.09 848 25.04 17.4 63.2 53 7.8 46
04:25 1019 30.09 848 25.04 17.2 62.9 53 7.5 45.5
04:30 1019 30.09 848 25.04 17.3 63.2 52 7.4 45.3
04:35 1019 30.09 848 25.04 17.5 63.4 51 7.3 45.2
04:40 1019 30.09 848 25.04 17.6 63.7 51 7.4 45.3
04:45 1019 30.09 848 25.04 17.7 63.8 50 7.4 45.2
04:50 1019 30.09 848 25.04 17.6 63.6 53 7.9 46.2
04:55 1019 30.09 848 25.04 17.1 62.8 56 8.3 47
05:00 1019 30.09 848 25.04 16.3 61.4 57 7.9 46.2
05:05 1019 30.09 848 25.04 16.5 61.6 61 9.1 48.4
05:10 1019 30.09 848 25.04 16.9 62.3 54 7.7 45.9
05:15 1019 30.09 848 25.04 17 62.5 54 7.8 46.1
05:20 1019 30.09 848 25.04 16.9 62.3 55 7.9 46.3
05:25 1019 30.09 848 25.04 16.8 62.3 54 7.7 45.8
05:30 1019 30.09 848 25.04 17.2 62.9 56 8.5 47.2
05:35 1019 30.09 848 25.04 17.2 63 52 7.5 45.5
05:40 1019 30.09 848 25.04 17.1 62.9 54 7.9 46.2
05:45 1019 30.09 848 25.04 17 62.7 55 7.9 46.3
05:50 1019 30.09 848 25.04 17.2 62.9 57 8.5 47.4
05:55 1019 30.09 848 25.04 17.4 63.3 57 8.8 47.8
06:00 1019 30.09 848 25.04 17.5 63.6 54 8.1 46.6
06:05 1019 30.09 848 25.04 17.6 63.6 53 8 46.4
06:10 1019 30.09 848 25.04 17.8 64 53 8.2 46.7
06:15 1019 30.09 848 25.04 17.7 63.9 56 8.8 47.9
06:20 1019 30.09 848 25.04 17.7 63.9 54 8.5 47.2
06:25 1019 30.09 848 25.04 17.8 64.1 55 8.8 47.8
06:30 1019 30.09 848 25.04 18.3 65 53 8.6 47.5
06:35 1019 30.09 848 25.04 18.7 65.6 52 8.7 47.7
06:40 1019 30.09 848 25.04 19 66.1 52 8.9 48
06:45 1019 30.09 848 25.04 19.4 67 50 8.9 48.1
06:50 1019 30.09 848 25.04 19.8 67.6 49 9 48.2
06:55 1019 30.09 848 25.04 20.1 68.3 50 9.5 49.1
07:00 1019 30.09 848 25.04 19.9 67.9 51 9.5 49.1
07:05 1019 30.09 848 25.04 19.8 67.7 51 9.5 49
07:10 1019 30.09 848 25.04 20.1 68.1 51 9.9 49.8
07:15 1019 30.09 848 25.04 20.4 68.8 50 9.7 49.5
07:20 1019 30.09 848 25.04 20.9 69.6 49 9.8 49.6
07:25 1019 30.09 848 25.04 21.4 70.6 49 10.3 50.6
07:30 1019 30.09 848 25.04 21.6 70.8 43 8.6 47.5
07:35 1019 30.09 848 25.04 22 71.6 43 8.9 48
07:40 1019 30.09 848 25.04 22.2 72 42 8.7 47.7
07:45 1019 30.09 848 25.04 22.9 73.2 40 8.6 47.6
07:50 1019 30.09 848 25.04 23.2 73.8 38 8.4 47.2
07:55 1019 30.09 848 25.04 23.8 74.9 38 8.8 47.8
08:00 1019 30.09 848 25.04 23.2 73.7 41 9.3 48.8
08:05 1019 30.09 848 25.04 23.2 73.7 39 8.6 47.4
08:10 1019 30.09 848 25.04 23.9 75 41 10.2 50.3
08:15 1019 30.09 848 25.04 23.7 74.6 40 9.5 49.1
08:20 1019 30.09 848 25.04 23.8 74.9 40 9.6 49.3
08:25 1019 30.09 848 25.04 24.4 75.8 38 9.2 48.6
08:30 1019 30.09 848 25.04 24.3 75.7 39 9.5 49.2
08:35 1019 30.09 848 25.04 24.5 76.1 38 9.3 48.7
08:40 1019 30.09 848 25.04 25.4 77.7 35 9.2 48.6
08:45 1019 30.09 848 25.04 25.5 78 36 9.5 49
08:50 1019 30.09 848 25.04 25.4 77.7 35 8.9 48
08:55 1018 30.06 848 25.04 25.4 77.7 35 9.2 48.5
09:00 1018 30.06 848 25.04 25.5 77.9 36 9.5 49
09:05 1018 30.06 848 25.04 25.5 77.9 34 8.7 47.6
09:10 1018 30.06 848 25.04 26.2 79.2 32 8.6 47.5
09:15 1018 30.06 848 25.04 26.3 79.3 33 9.1 48.4
09:20 1018 30.06 847 25.01 26.6 79.8 32 8.6 47.6
09:25 1018 30.06 847 25.01 26.7 80 32 9 48.3
09:30 1018 30.06 847 25.01 26.7 80 31 8.6 47.4
09:35 1018 30.06 847 25.01 26.5 79.7 34 9.4 49
09:40 1018 30.06 847 25.01 26.7 80 32 9.1 48.3
09:45 1018 30.06 847 25.01 27.1 80.8 32 9.2 48.5
09:50 1018 30.06 847 25.01 27.3 81.2 30 8.3 47
09:55 1018 30.06 847 25.01 26.6 80 31 8.4 47.1
10:00 1018 30.06 847 25.01 27 80.6 30 8.1 46.7
10:05 1018 30.06 847 25.01 27.7 81.9 28 7.9 46.2
10:10 1018 30.06 847 25.01 27.7 81.8 29 8.4 47.2
10:15 1018 30.06 847 25.01 27 80.6 32 9.4 48.9
10:20 1018 30.06 847 25.01 27 80.7 28 7.3 45.1
10:25 1018 30.06 847 25.01 27.6 81.6 28 7.5 45.4
10:30 1018 30.06 847 25.01 27.3 81.1 28 7.2 44.9
10:35 1018 30.06 847 25.01 27.9 82.1 26 7 44.7
10:40 1018 30.06 847 25.01 28.3 82.9 26 7.5 45.5
10:45 1018 30.06 847 25.01 27.6 81.7 28 7.7 45.8
10:50 1018 30.06 847 25.01 27.7 81.9 29 8.2 46.7
10:55 1018 30.06 847 25.01 27.9 82.2 28 8.2 46.8
11:00 1018 30.06 847 25.01 28.7 83.6 26 7.7 45.8
11:05 1018 30.06 847 25.01 29.1 84.3 27 8.4 47.1
11:10 1018 30.06 847 25.01 28.4 83 27 8 46.4
11:15 1017 30.03 847 25.01 28.5 83.3 28 8.5 47.2
11:20 1017 30.03 847 25.01 29 84.2 25 7.4 45.3
11:25 1017 30.03 847 25.01 29.2 84.5 24 7 44.6
11:30 1017 30.03 847 25.01 29.2 84.5 25 7.3 45.2
11:35 1017 30.03 847 25.01 29.5 85.1 24 7.1 44.7
11:40 1017 30.03 846 24.98 29.3 84.7 24 7 44.6
11:45 1017 30.03 846 24.98 28.9 83.9 26 7.7 45.8
11:50 1017 30.03 846 24.98 29.3 84.7 26 8.3 46.9
11:55 1017 30.03 846 24.98 29.7 85.4 26 8.3 47
12:00 1017 30.03 846 24.98 29.8 85.6 27 9.1 48.3
12:05 1017 30.03 846 24.98 29.1 84.3 25 7.4 45.4
12:10 1017 30.03 846 24.98 28.2 82.8 26 7.2 45
12:15 1017 30.03 846 24.98 28.5 83.3 26 7.2 45
12:20 1017 30.03 846 24.98 28.7 83.7 26 7.8 46.1
12:25 1017 30.03 846 24.98 28.5 83.3 25 6.7 44
12:30 1017 30.03 846 24.98 29.2 84.5 23 6.6 43.8
12:35 1017 30.03 846 24.98 28.7 83.7 24 6.6 43.9
12:40 1017 30.03 846 24.98 29.3 84.8 23 6.6 43.8
12:45 1017 30.03 846 24.98 30.2 86.4 20 5.2 41.4
12:50 1017 30.03 846 24.98 30 85.9 22 6 42.8
12:55 1017 30.03 846 24.98 30.8 87.4 22 6.8 44.3
13:00 1017 30.03 846 24.98 30.5 86.9 22 6.9 44.4
13:05 1017 30.03 846 24.98 29.8 85.6 21 5.6 42.1
13:10 1016 30 846 24.98 29 84.2 23 5.9 42.7
13:15 1016 30 846 24.98 29.9 85.7 22 6.4 43.5
13:20 1016 30 846 24.98 30.1 86.2 21 6 42.8
13:25 1016 30 846 24.98 30.6 87 21 6.1 42.9
13:30 1016 30 846 24.98 30.4 86.7 22 6.9 44.5
13:35 1016 30 845 24.95 30.9 87.7 22 6.9 44.5
13:40 1016 30 845 24.95 30.9 87.6 21 6.3 43.4
13:45 1016 30 845 24.95 29.8 85.6 23 6.8 44.2
13:50 1016 30 845 24.95 29.9 85.7 22 6.3 43.4
13:55 1016 30 845 24.95 30.1 86.2 22 6.2 43.2
14:00 1016 30 845 24.95 30.4 86.7 20 5.6 42.1
14:05 1016 30 845 24.95 30.4 86.7 21 6 42.9
14:10 1016 30 845 24.95 30.1 86.2 21 5.8 42.4
14:15 1016 30 845 24.95 29.7 85.4 21 5.2 41.4
14:20 1016 30 845 24.95 30.2 86.3 20 5.3 41.6
14:25 1016 30 845 24.95 30.4 86.8 20 5.6 42.2
14:30 1016 30 845 24.95 30.4 86.8 20 5.6 42.1
14:35 1015 29.97 845 24.95 29.8 85.6 20 4.9 40.9
14:40 1015 29.97 845 24.95 30 85.9 20 4.8 40.6
14:45 1015 29.97 845 24.95 30.2 86.3 20 5 41
14:50 1015 29.97 844 24.92 30.1 86.2 20 5.1 41.3
14:55 1015 29.97 844 24.92 30 86 20 4.9 40.7
15:00 1015 29.97 844 24.92 29.7 85.5 20 5 41
15:05 1015 29.97 844 24.92 29.5 85.1 21 5 41.1
15:10 1015 29.97 844 24.92 29 84.3 22 5.5 41.9
15:15 1015 29.97 844 24.92 29.3 84.8 21 5.3 41.5
15:20 1015 29.97 844 24.92 29.7 85.5 22 6 42.7
15:25 1015 29.97 844 24.92 29.7 85.4 21 5.4 41.8
15:30 1015 29.97 844 24.92 29.9 85.7 20 4.7 40.5
15:35 1015 29.97 844 24.92 29.1 84.3 22 5.8 42.4
15:40 1015 29.97 844 24.92 28.8 83.9 21 4.6 40.2
15:45 1015 29.97 844 24.92 28.8 83.8 22 5.5 41.9
15:50 1015 29.97 844 24.92 28.8 83.9 21 4.5 40.2
15:55 1015 29.97 844 24.92 29.2 84.5 21 4.8 40.6
16:00 1015 29.97 844 24.92 29.3 84.7 22 5.7 42.3
16:05 1015 29.97 844 24.92 29.5 85.1 22 5.8 42.4
16:10 1015 29.97 844 24.92 30.4 86.6 19 4.8 40.7
16:15 1015 29.97 844 24.92 30.3 86.5 19 4.7 40.5
16:20 1014 29.94 844 24.92 29.9 85.8 21 5.3 41.6
16:25 1014 29.94 844 24.92 29.6 85.2 20 4.7 40.5
16:30 1014 29.94 844 24.92 29.7 85.5 20 4.6 40.3
16:35 1014 29.94 843 24.89 30.5 86.9 19 4.6 40.3
16:40 1014 29.94 843 24.89 30.6 87 19 4.4 39.8
16:45 1014 29.94 843 24.89 30.1 86.2 19 4.6 40.3
16:50 1014 29.94 843 24.89 29.4 84.9 21 4.8 40.7
16:55 1014 29.94 843 24.89 29.7 85.4 20 4.7 40.4
17:00 1014 29.94 843 24.89 30.2 86.3 20 5 41
17:05 1014 29.94 843 24.89 30.3 86.5 19 4.4 39.9
17:10 1014 29.94 843 24.89 30.2 86.3 17 3 37.4
17:15 1014 29.94 843 24.89 30.1 86.1 18 3.4 38.2
17:20 1014 29.94 843 24.89 29.8 85.6 18 3.5 38.2
17:25 1014 29.94 843 24.89 29.6 85.3 19 4.2 39.6
17:30 1014 29.94 843 24.89 29.4 84.8 20 4.5 40.1
17:35 1014 29.94 843 24.89 29.3 84.7 20 4.1 39.4
17:40 1014 29.94 843 24.89 29.6 85.3 20 4.6 40.3
17:45 1014 29.94 843 24.89 29.7 85.5 18 3.6 38.4
17:50 1014 29.94 843 24.89 29.3 84.7 21 5 41.1
17:55 1014 29.94 843 24.89 29.3 84.8 21 5.1 41.2
18:00 1014 29.94 843 24.89 29 84.3 20 4.3 39.8
18:05 1014 29.94 843 24.89 29 84.2 19 3.5 38.3
18:10 1014 29.94 843 24.89 29.3 84.7 25 7.4 45.3
18:15 1014 29.94 843 24.89 28.7 83.7 23 5.9 42.6
18:20 1014 29.94 843 24.89 28.6 83.4 24 6.6 43.8
18:25 1014 29.94 843 24.89 28.5 83.2 24 6.5 43.8
18:30 1014 29.94 843 24.89 28.4 83.2 22 5.1 41.2
18:35 1014 29.94 843 24.89 28.3 82.9 22 5.1 41.1
18:40 1014 29.94 843 24.89 28.2 82.7 23 5.3 41.6
18:45 1014 29.94 843 24.89 28.1 82.5 26 7 44.6
18:50 1014 29.94 843 24.89 27.7 81.9 32 9.9 49.8
18:55 1014 29.94 843 24.89 27.1 80.8 35 10.6 51.1
19:00 1014 29.94 843 24.89 26.9 80.3 36 11 51.7
19:05 1014 29.94 843 24.89 26.5 79.8 38 11.3 52.3
19:10 1014 29.94 843 24.89 26 78.8 39 11.3 52.3
19:15 1014 29.94 843 24.89 25.7 78.2 39 11.1 51.9
19:20 1014 29.94 843 24.89 25.3 77.5 40 10.9 51.7
19:25 1014 29.94 843 24.89 25 77.1 40 10.6 51.1
19:30 1014 29.94 843 24.89 24.8 76.6 39 10.2 50.4
19:35 1014 29.94 843 24.89 24.6 76.2 40 10.3 50.5
19:40 1014 29.94 843 24.89 24.5 76.1 39 9.7 49.5
19:45 1014 29.94 843 24.89 24.5 76.1 37 9 48.2
19:50 1014 29.94 843 24.89 24.5 76 36 8.8 47.9
19:55 1014 29.94 843 24.89 24.4 75.9 36 8.7 47.7
20:00 1014 29.94 843 24.89 24.3 75.7 36 8.5 47.3
20:05 1014 29.94 843 24.89 24.1 75.3 36 8.2 46.7
20:10 1014 29.94 843 24.89 24 75.2 36 8.3 47
20:15 1014 29.94 843 24.89 23.9 75 36 8.2 46.7
20:20 1014 29.94 843 24.89 23.8 74.8 37 8.2 46.8
20:25 1014 29.94 843 24.89 23.6 74.5 37 8.2 46.8
20:30 1014 29.94 843 24.89 23.6 74.5 37 8.1 46.5
20:35 1014 29.94 843 24.89 23.5 74.3 37 8 46.4
20:40 1014 29.94 843 24.89 23.4 74.2 37 8.2 46.8
20:45 1014 29.94 843 24.89 23.4 74.1 37 8.1 46.6
20:50 1014 29.94 843 24.89 23.4 74 37 8.2 46.7
20:55 1014 29.94 843 24.89 23.3 73.9 38 8.3 46.9
21:00 1014 29.94 843 24.89 23.2 73.7 38 8.3 47
21:05 1014 29.94 843 24.89 23.2 73.7 38 8.4 47
21:10 1014 29.94 843 24.89 23.1 73.5 39 8.6 47.4
21:15 1014 29.94 843 24.89 23.1 73.5 39 8.6 47.5
21:20 1014 29.94 843 24.89 23.1 73.6 40 8.9 47.9
21:25 1014 29.94 843 24.89 23 73.4 41 9.1 48.4
21:30 1014 29.94 843 24.89 22.8 73.1 42 9.5 49.2
21:35 1014 29.94 843 24.89 22.7 72.9 43 9.7 49.5
21:40 1014 29.94 843 24.89 22.5 72.5 44 9.9 49.7
21:45 1014 29.94 843 24.89 22.3 72.2 45 10 50.1
21:50 1014 29.94 843 24.89 22.2 71.9 46 10.1 50.3
21:55 1014 29.94 843 24.89 22 71.7 46 10.2 50.3
22:00 1014 29.94 843 24.89 22 71.5 47 10.2 50.4
22:05 1014 29.94 843 24.89 21.9 71.5 47 10.1 50.2
22:10 1014 29.94 843 24.89 21.9 71.3 47 10.1 50.2
22:15 1014 29.94 843 24.89 21.9 71.3 47 10.2 50.4
22:20 1014 29.94 843 24.89 21.8 71.2 47 10.2 50.4
22:25 1014 29.94 843 24.89 21.8 71.2 47 10 50
22:30 1014 29.94 843 24.89 21.8 71.2 47 10.2 50.3
22:35 1014 29.94 843 24.89 21.7 71.1 48 10.3 50.5
22:40 1014 29.94 843 24.89 21.6 71 48 10.4 50.7
22:45 1014 29.94 843 24.89 21.5 70.7 48 10.3 50.6
22:50 1014 29.94 843 24.89 21.4 70.6 49 10.6 51
22:55 1014 29.94 843 24.89 21.3 70.3 50 10.7 51.2
23:00 1014 29.94 843 24.89 21 69.9 54 11.6 52.8
23:05 1014 29.94 843 24.89 20.1 68.2 57 11.3 52.4
23:10 1014 29.94 843 24.89 19.8 67.6 54 10.3 50.6
23:15 1014 29.94 843 24.89 19.9 67.9 54 10.5 51
23:20 1014 29.94 843 24.89 19.9 67.7 54 10.5 51
23:25 1014 29.94 843 24.89 19.8 67.7 54 10.4 50.8
23:30 1014 29.94 843 24.89 19.8 67.7 54 10.5 50.9
23:35 1014 29.94 843 24.89 19.6 67.3 56 10.7 51.3
23:40 1014 29.94 843 24.89 19.5 67 55 10.3 50.5
23:45 1014 29.94 843 24.89 19.2 66.6 56 10.3 50.5
23:50 1014 29.94 843 24.89 18.9 66.1 57 10.2 50.4
23:55 1014 29.94 843 24.89 18.6 65.4 58 10.4 50.7
24:00 1014 29.94 843 24.89 18.5 65.3 58 10.2 50.4